sensor_id;sensor_type;location;lat;lon;timestamp;pressure;altitude;pressure_sealevel;temperature;humidity
62789;BME280;66401;42.016;21.454;2024-03-02T00:00:11;97751.44;;;9.87;100.00
62789;BME280;66401;42.016;21.454;2024-03-02T00:02:44;97753.22;;;9.80;100.00
62789;BME280;66401;42.016;21.454;2024-03-02T00:05:15;97742.41;;;9.63;100.00
62789;BME280;66401;42.016;21.454;2024-03-02T00:07:45;97744.22;;;9.69;100.00
62789;BME280;66401;42.016;21.454;2024-03-02T00:10:19;97745.63;;;9.72;100.00
62789;BME280;66401;42.016;21.454;2024-03-02T00:12:47;97736.81;;;9.80;100.00
62789;BME280;66401;42.016;21.454;2024-03-02T00:17:59;97718.00;;;9.84;100.00
62789;BME280;66401;42.016;21.454;2024-03-02T00:20:24;97735.41;;;10.03;100.00
62789;BME280;66401;42.016;21.454;2024-03-02T00:23:08;97730.03;;;9.98;100.00
62789;BME280;66401;42.016;21.454;2024-03-02T00:25:41;97747.66;;;9.96;100.00
62789;BME280;66401;42.016;21.454;2024-03-02T00:28:19;97744.84;;;9.78;100.00
62789;BME280;66401;42.016;21.454;2024-03-02T00:31:07;97742.59;;;9.55;100.00
62789;BME280;66401;42.016;21.454;2024-03-02T00:33:35;97746.22;;;9.61;100.00
62789;BME280;66401;42.016;21.454;2024-03-02T00:36:02;97746.44;;;9.66;100.00
62789;BME280;66401;42.016;21.454;2024-03-02T00:38:29;97735.63;;;9.56;100.00
62789;BME280;66401;42.016;21.454;2024-03-02T00:40:56;97750.81;;;9.72;100.00
62789;BME280;66401;42.016;21.454;2024-03-02T00:43:50;97756.38;;;9.42;100.00
62789;BME280;66401;42.016;21.454;2024-03-02T00:46:19;97747.56;;;9.43;100.00
62789;BME280;66401;42.016;21.454;2024-03-02T00:48:52;97748.03;;;9.67;100.00
62789;BME280;66401;42.016;21.454;2024-03-02T00:51:20;97748.78;;;9.48;100.00
62789;BME280;66401;42.016;21.454;2024-03-02T00:53:46;97746.97;;;9.41;100.00
62789;BME280;66401;42.016;21.454;2024-03-02T00:56:11;97758.94;;;9.36;100.00
62789;BME280;66401;42.016;21.454;2024-03-02T00:58:38;97731.88;;;9.04;100.00
62789;BME280;66401;42.016;21.454;2024-03-02T01:01:03;97742.13;;;9.25;100.00
62789;BME280;66401;42.016;21.454;2024-03-02T01:03:30;97747.75;;;9.35;100.00
62789;BME280;66401;42.016;21.454;2024-03-02T01:05:56;97747.59;;;9.50;100.00
62789;BME280;66401;42.016;21.454;2024-03-02T01:08:21;97739.38;;;9.53;100.00
62789;BME280;66401;42.016;21.454;2024-03-02T01:10:47;97737.81;;;9.59;100.00
62789;BME280;66401;42.016;21.454;2024-03-02T01:13:12;97754.59;;;9.63;100.00
62789;BME280;66401;42.016;21.454;2024-03-02T01:15:38;97738.00;;;9.64;100.00
62789;BME280;66401;42.016;21.454;2024-03-02T01:18:04;97742.41;;;9.63;100.00
62789;BME280;66401;42.016;21.454;2024-03-02T01:20:29;97739.41;;;9.73;100.00
62789;BME280;66401;42.016;21.454;2024-03-02T01:22:55;97743.63;;;9.74;100.00
62789;BME280;66401;42.016;21.454;2024-03-02T01:25:20;97733.22;;;9.74;100.00
62789;BME280;66401;42.016;21.454;2024-03-02T01:27:46;97724.63;;;9.67;100.00
62789;BME280;66401;42.016;21.454;2024-03-02T01:30:11;97747.63;;;9.83;100.00
62789;BME280;66401;42.016;21.454;2024-03-02T01:32:40;97742.41;;;9.83;100.00
62789;BME280;66401;42.016;21.454;2024-03-02T01:35:06;97737.44;;;9.88;100.00
62789;BME280;66401;42.016;21.454;2024-03-02T01:37:32;97739.63;;;9.91;100.00
62789;BME280;66401;42.016;21.454;2024-03-02T01:39:58;97732.44;;;9.87;100.00
62789;BME280;66401;42.016;21.454;2024-03-02T01:42:24;97718.59;;;9.73;100.00
62789;BME280;66401;42.016;21.454;2024-03-02T01:44:50;97733.63;;;9.78;100.00
62789;BME280;66401;42.016;21.454;2024-03-02T01:47:15;97734.00;;;9.74;100.00
62789;BME280;66401;42.016;21.454;2024-03-02T01:49:41;97728.81;;;9.68;100.00
62789;BME280;66401;42.016;21.454;2024-03-02T01:52:07;97722.81;;;9.61;100.00
62789;BME280;66401;42.016;21.454;2024-03-02T01:54:32;97729.19;;;9.65;100.00
62789;BME280;66401;42.016;21.454;2024-03-02T01:56:59;97732.63;;;9.72;100.00
62789;BME280;66401;42.016;21.454;2024-03-02T01:59:25;97721.81;;;9.68;100.00
62789;BME280;66401;42.016;21.454;2024-03-02T02:01:50;97728.00;;;9.74;100.00
62789;BME280;66401;42.016;21.454;2024-03-02T02:04:16;97729.22;;;9.78;100.00
62789;BME280;66401;42.016;21.454;2024-03-02T02:06:44;97721.22;;;9.73;100.00
62789;BME280;66401;42.016;21.454;2024-03-02T02:09:09;97724.22;;;9.77;100.00
62789;BME280;66401;42.016;21.454;2024-03-02T02:11:35;97720.63;;;9.71;100.00
62789;BME280;66401;42.016;21.454;2024-03-02T02:14:01;97728.00;;;9.74;100.00
62789;BME280;66401;42.016;21.454;2024-03-02T02:16:26;97736.22;;;9.71;100.00
62789;BME280;66401;42.016;21.454;2024-03-02T02:18:52;97718.41;;;9.68;100.00
62789;BME280;66401;42.016;21.454;2024-03-02T02:21:17;97730.03;;;9.79;100.00
62789;BME280;66401;42.016;21.454;2024-03-02T02:23:43;97719.81;;;9.77;100.00
62789;BME280;66401;42.016;21.454;2024-03-02T02:26:12;97732.22;;;9.88;100.00
62789;BME280;66401;42.016;21.454;2024-03-02T02:28:37;97719.81;;;9.84;100.00
62789;BME280;66401;42.016;21.454;2024-03-02T02:31:03;97725.63;;;9.86;100.00
62789;BME280;66401;42.016;21.454;2024-03-02T02:33:29;97716.03;;;9.80;100.00
62789;BME280;66401;42.016;21.454;2024-03-02T02:35:54;97719.22;;;9.88;100.00
62789;BME280;66401;42.016;21.454;2024-03-02T02:38:20;97725.63;;;9.86;100.00
62789;BME280;66401;42.016;21.454;2024-03-02T02:40:45;97702.03;;;9.67;100.00
62789;BME280;66401;42.016;21.454;2024-03-02T02:43:11;97691.63;;;9.67;100.00
62789;BME280;66401;42.016;21.454;2024-03-02T02:45:36;97721.63;;;9.77;100.00
62789;BME280;66401;42.016;21.454;2024-03-02T02:48:02;97718.59;;;9.73;100.00
62789;BME280;66401;42.016;21.454;2024-03-02T02:50:28;97718.59;;;9.73;100.00
62789;BME280;66401;42.016;21.454;2024-03-02T02:52:54;97734.81;;;9.82;100.00
62789;BME280;66401;42.016;21.454;2024-03-02T02:55:19;97739.44;;;9.86;100.00
62789;BME280;66401;42.016;21.454;2024-03-02T02:57:45;97735.63;;;9.95;100.00
62789;BME280;66401;42.016;21.454;2024-03-02T03:00:15;97729.22;;;9.98;100.00
62789;BME280;66401;42.016;21.454;2024-03-02T03:02:43;97737.84;;;9.98;100.00
62789;BME280;66401;42.016;21.454;2024-03-02T03:05:10;97735.63;;;9.95;100.00
62789;BME280;66401;42.016;21.454;2024-03-02T03:07:37;97734.03;;;9.94;100.00
62789;BME280;66401;42.016;21.454;2024-03-02T03:10:04;97741.22;;;9.92;100.00
62789;BME280;66401;42.016;21.454;2024-03-02T03:12:30;97739.22;;;10.01;100.00
62789;BME280;66401;42.016;21.454;2024-03-02T03:14:58;97737.63;;;9.93;100.00
62789;BME280;66401;42.016;21.454;2024-03-02T03:17:25;97744.84;;;10.04;100.00
62789;BME280;66401;42.016;21.454;2024-03-02T03:19:50;97739.63;;;9.91;100.00
62789;BME280;66401;42.016;21.454;2024-03-02T03:22:16;97747.44;;;10.04;100.00
62789;BME280;66401;42.016;21.454;2024-03-02T03:24:42;97748.03;;;10.07;100.00
62789;BME280;66401;42.016;21.454;2024-03-02T03:27:08;97736.41;;;10.02;100.00
62789;BME280;66401;42.016;21.454;2024-03-02T03:29:36;97748.41;;;10.03;100.00
62789;BME280;66401;42.016;21.454;2024-03-02T03:32:02;97748.84;;;10.00;100.00
62789;BME280;66401;42.016;21.454;2024-03-02T03:34:27;97753.22;;;10.00;100.00
62789;BME280;66401;42.016;21.454;2024-03-02T03:36:54;97750.44;;;10.01;100.00
62789;BME280;66401;42.016;21.454;2024-03-02T03:39:20;97757.22;;;10.02;100.00
62789;BME280;66401;42.016;21.454;2024-03-02T03:41:45;97749.63;;;10.01;100.00
62789;BME280;66401;42.016;21.454;2024-03-02T03:44:11;97748.03;;;10.07;100.00
62789;BME280;66401;42.016;21.454;2024-03-02T03:46:36;97749.63;;;10.08;100.00
62789;BME280;66401;42.016;21.454;2024-03-02T03:49:02;97739.66;;;10.04;100.00
62789;BME280;66401;42.016;21.454;2024-03-02T03:51:29;97743.63;;;10.00;100.00
62789;BME280;66401;42.016;21.454;2024-03-02T03:53:55;97727.81;;;10.02;100.00
62789;BME280;66401;42.016;21.454;2024-03-02T03:56:21;97729.44;;;9.96;100.00
62789;BME280;66401;42.016;21.454;2024-03-02T03:58:46;97732.03;;;9.96;100.00
62789;BME280;66401;42.016;21.454;2024-03-02T04:01:12;97734.41;;;9.91;100.00
62789;BME280;66401;42.016;21.454;2024-03-02T04:03:38;97728.03;;;9.87;100.00
62789;BME280;66401;42.016;21.454;2024-03-02T04:06:04;97729.25;;;9.85;100.00
62789;BME280;66401;42.016;21.454;2024-03-02T04:08:29;97719.81;;;9.77;100.00
62789;BME280;66401;42.016;21.454;2024-03-02T04:10:56;97727.22;;;9.80;100.00
62789;BME280;66401;42.016;21.454;2024-03-02T04:13:21;97723.03;;;9.79;100.00
62789;BME280;66401;42.016;21.454;2024-03-02T04:15:47;97723.84;;;9.86;100.00
62789;BME280;66401;42.016;21.454;2024-03-02T04:18:12;97727.22;;;9.87;100.00
62789;BME280;66401;42.016;21.454;2024-03-02T04:20:38;97733.22;;;9.87;100.00
62789;BME280;66401;42.016;21.454;2024-03-02T04:23:04;97725.63;;;9.79;100.00
62789;BME280;66401;42.016;21.454;2024-03-02T04:25:29;97717.59;;;9.74;100.00
62789;BME280;66401;42.016;21.454;2024-03-02T04:27:55;97710.44;;;9.76;100.00
62789;BME280;66401;42.016;21.454;2024-03-02T04:30:20;97732.44;;;9.80;100.00
62789;BME280;66401;42.016;21.454;2024-03-02T04:32:45;97729.00;;;9.73;100.00
62789;BME280;66401;42.016;21.454;2024-03-02T04:35:12;97721.00;;;9.74;100.00
62789;BME280;66401;42.016;21.454;2024-03-02T04:37:38;97735.25;;;9.85;100.00
62789;BME280;66401;42.016;21.454;2024-03-02T04:40:04;97739.22;;;9.88;100.00
62789;BME280;66401;42.016;21.454;2024-03-02T04:42:33;97729.84;;;9.87;100.00
62789;BME280;66401;42.016;21.454;2024-03-02T04:44:59;97730.41;;;9.82;100.00
62789;BME280;66401;42.016;21.454;2024-03-02T04:47:24;97744.63;;;9.80;100.00
62789;BME280;66401;42.016;21.454;2024-03-02T04:49:50;97749.22;;;9.71;100.00
62789;BME280;66401;42.016;21.454;2024-03-02T04:52:16;97741.44;;;9.78;100.00
62789;BME280;66401;42.016;21.454;2024-03-02T04:54:41;97731.81;;;9.71;100.00
62789;BME280;66401;42.016;21.454;2024-03-02T04:57:30;97742.22;;;9.78;100.00
62789;BME280;66401;42.016;21.454;2024-03-02T04:59:55;97732.25;;;9.75;100.00
62789;BME280;66401;42.016;21.454;2024-03-02T05:02:21;97731.00;;;9.71;100.00
62789;BME280;66401;42.016;21.454;2024-03-02T05:04:46;97757.84;;;9.78;100.00
62789;BME280;66401;42.016;21.454;2024-03-02T05:07:14;97736.03;;;9.66;100.00
62789;BME280;66401;42.016;21.454;2024-03-02T05:09:39;97746.44;;;9.66;100.00
62789;BME280;66401;42.016;21.454;2024-03-02T05:12:05;97757.63;;;9.73;100.00
62789;BME280;66401;42.016;21.454;2024-03-02T05:14:46;97755.44;;;9.77;100.00
62789;BME280;66401;42.016;21.454;2024-03-02T05:17:11;97756.44;;;9.82;100.00
62789;BME280;66401;42.016;21.454;2024-03-02T05:19:37;97756.63;;;9.74;100.00
62789;BME280;66401;42.016;21.454;2024-03-02T05:22:03;97754.22;;;9.66;100.00
62789;BME280;66401;42.016;21.454;2024-03-02T05:24:29;97750.81;;;9.59;100.00
62789;BME280;66401;42.016;21.454;2024-03-02T05:26:54;97749.22;;;9.71;100.00
62789;BME280;66401;42.016;21.454;2024-03-02T05:29:20;97756.19;;;9.64;100.00
62789;BME280;66401;42.016;21.454;2024-03-02T05:31:46;97758.00;;;9.63;100.00
62789;BME280;66401;42.016;21.454;2024-03-02T05:34:11;97754.22;;;9.72;100.00
62789;BME280;66401;42.016;21.454;2024-03-02T05:36:37;97762.84;;;9.80;100.00
62789;BME280;66401;42.016;21.454;2024-03-02T05:39:04;97752.41;;;9.73;100.00
62789;BME280;66401;42.016;21.454;2024-03-02T05:41:34;97764.00;;;9.64;100.00
62789;BME280;66401;42.016;21.454;2024-03-02T05:44:00;97763.44;;;9.68;100.00
62789;BME280;66401;42.016;21.454;2024-03-02T05:46:26;97766.03;;;9.68;100.00
62789;BME280;66401;42.016;21.454;2024-03-02T05:48:51;97776.03;;;9.78;100.00
62789;BME280;66401;42.016;21.454;2024-03-02T05:51:17;97760.22;;;9.66;100.00
62789;BME280;66401;42.016;21.454;2024-03-02T05:53:42;97767.63;;;9.69;100.00
62789;BME280;66401;42.016;21.454;2024-03-02T05:56:08;97780.44;;;9.78;100.00
62789;BME280;66401;42.016;21.454;2024-03-02T05:58:33;97780.66;;;9.76;100.00
62789;BME280;66401;42.016;21.454;2024-03-02T06:01:17;97780.44;;;9.84;100.00
62789;BME280;66401;42.016;21.454;2024-03-02T06:03:43;97793.66;;;9.96;100.00
62789;BME280;66401;42.016;21.454;2024-03-02T06:06:09;97794.66;;;10.01;100.00
62789;BME280;66401;42.016;21.454;2024-03-02T06:08:34;97781.25;;;9.85;100.00
62789;BME280;66401;42.016;21.454;2024-03-02T06:11:00;97800.03;;;9.80;100.00
62789;BME280;66401;42.016;21.454;2024-03-02T06:13:26;97799.25;;;9.86;100.00
62789;BME280;66401;42.016;21.454;2024-03-02T06:15:52;97781.25;;;9.85;100.00
62789;BME280;66401;42.016;21.454;2024-03-02T06:18:17;97792.06;;;10.01;100.00
62789;BME280;66401;42.016;21.454;2024-03-02T06:20:43;97783.28;;;10.16;100.00
62789;BME280;66401;42.016;21.454;2024-03-02T06:23:08;97795.28;;;10.17;100.00
62789;BME280;66401;42.016;21.454;2024-03-02T06:25:34;97786.88;;;10.15;100.00
62789;BME280;66401;42.016;21.454;2024-03-02T06:28:00;97789.06;;;10.18;100.00
62789;BME280;66401;42.016;21.454;2024-03-02T06:30:25;97792.88;;;10.09;100.00
62789;BME280;66401;42.016;21.454;2024-03-02T06:32:51;97781.66;;;10.08;100.00
62789;BME280;66401;42.016;21.454;2024-03-02T06:35:16;97774.88;;;10.14;100.00
62789;BME280;66401;42.016;21.454;2024-03-02T06:37:42;97802.91;;;10.38;100.00
62789;BME280;66401;42.016;21.454;2024-03-02T06:40:08;97781.69;;;10.35;100.00
62789;BME280;66401;42.016;21.454;2024-03-02T06:42:34;97797.31;;;10.28;100.00
62789;BME280;66401;42.016;21.454;2024-03-02T06:45:00;97799.72;;;10.36;100.00
62789;BME280;66401;42.016;21.454;2024-03-02T06:47:25;97809.72;;;10.39;100.00
62789;BME280;66401;42.016;21.454;2024-03-02T06:49:51;97804.91;;;10.36;100.00
62789;BME280;66401;42.016;21.454;2024-03-02T06:52:16;97812.50;;;10.57;100.00
62789;BME280;66401;42.016;21.454;2024-03-02T06:54:42;97814.06;;;10.78;100.00
62789;BME280;66401;42.016;21.454;2024-03-02T06:57:08;97821.59;;;11.06;100.00
62789;BME280;66401;42.016;21.454;2024-03-02T06:59:33;97820.78;;;11.12;100.00
62789;BME280;66401;42.016;21.454;2024-03-02T07:01:59;97822.91;;;11.29;100.00
62789;BME280;66401;42.016;21.454;2024-03-02T07:04:24;97808.72;;;11.25;100.00
62789;BME280;66401;42.016;21.454;2024-03-02T07:06:50;97803.53;;;11.18;100.00
62789;BME280;66401;42.016;21.454;2024-03-02T07:09:16;97821.31;;;11.28;100.00
62789;BME280;66401;42.016;21.454;2024-03-02T07:11:42;97820.94;;;11.31;100.00
62789;BME280;66401;42.016;21.454;2024-03-02T07:14:07;97831.16;;;11.26;100.00
62789;BME280;66401;42.016;21.454;2024-03-02T07:16:33;97822.81;;;11.04;100.00
62789;BME280;66401;42.016;21.454;2024-03-02T07:19:00;97831.22;;;11.12;100.00
62789;BME280;66401;42.016;21.454;2024-03-02T07:21:27;97826.31;;;11.36;100.00
62789;BME280;66401;42.016;21.454;2024-03-02T07:23:53;97845.13;;;11.44;100.00
62789;BME280;66401;42.016;21.454;2024-03-02T07:26:19;97797.63;;;11.36;100.00
62789;BME280;66401;42.016;21.454;2024-03-02T07:28:48;97839.16;;;11.75;100.00
62789;BME280;66401;42.016;21.454;2024-03-02T07:31:14;97840.50;;;11.91;98.74
62789;BME280;66401;42.016;21.454;2024-03-02T07:33:40;97845.00;;;12.09;98.18
62789;BME280;66401;42.016;21.454;2024-03-02T07:36:07;97824.06;;;11.91;96.05
62789;BME280;66401;42.016;21.454;2024-03-02T07:38:32;97841.75;;;11.89;98.66
62789;BME280;66401;42.016;21.454;2024-03-02T07:41:00;97844.09;;;11.97;97.44
62789;BME280;66401;42.016;21.454;2024-03-02T07:43:25;97833.19;;;12.31;94.78
62789;BME280;66401;42.016;21.454;2024-03-02T07:45:51;97849.91;;;12.74;93.64
62789;BME280;66401;42.016;21.454;2024-03-02T07:48:17;97842.47;;;12.96;91.07
62789;BME280;66401;42.016;21.454;2024-03-02T07:50:42;97842.16;;;13.59;88.12
62789;BME280;66401;42.016;21.454;2024-03-02T07:53:08;97847.94;;;14.09;83.09
62789;BME280;66401;42.016;21.454;2024-03-02T07:55:34;97846.88;;;14.75;82.56
62789;BME280;66401;42.016;21.454;2024-03-02T07:58:02;97848.94;;;14.85;79.58
62789;BME280;66401;42.016;21.454;2024-03-02T08:00:31;97843.94;;;15.47;76.96
62789;BME280;66401;42.016;21.454;2024-03-02T08:02:57;97845.19;;;15.85;73.54
62789;BME280;66401;42.016;21.454;2024-03-02T08:05:23;97834.56;;;16.08;71.30
62789;BME280;66401;42.016;21.454;2024-03-02T08:07:49;97844.59;;;16.45;70.79
62789;BME280;66401;42.016;21.454;2024-03-02T08:10:18;97852.06;;;16.19;69.67
62789;BME280;66401;42.016;21.454;2024-03-02T08:12:44;97859.78;;;15.64;71.39
62789;BME280;66401;42.016;21.454;2024-03-02T08:15:09;97861.97;;;16.46;70.41
62789;BME280;66401;42.016;21.454;2024-03-02T08:17:35;97857.97;;;16.94;66.93
62789;BME280;66401;42.016;21.454;2024-03-02T08:20:01;97862.13;;;17.28;64.68
62789;BME280;66401;42.016;21.454;2024-03-02T08:22:27;97854.78;;;17.08;64.80
62789;BME280;66401;42.016;21.454;2024-03-02T08:24:53;97856.53;;;16.86;66.74
62789;BME280;66401;42.016;21.454;2024-03-02T08:27:19;97865.78;;;16.55;66.73
62789;BME280;66401;42.016;21.454;2024-03-02T08:29:44;97862.13;;;16.90;64.13
62789;BME280;66401;42.016;21.454;2024-03-02T08:32:10;97859.13;;;16.81;65.30
62789;BME280;66401;42.016;21.454;2024-03-02T08:34:35;97859.09;;;16.64;64.77
62789;BME280;66401;42.016;21.454;2024-03-02T08:37:02;97861.97;;;16.12;66.78
62789;BME280;66401;42.016;21.454;2024-03-02T08:39:28;97872.31;;;16.36;67.52
62789;BME280;66401;42.016;21.454;2024-03-02T08:41:53;97867.97;;;15.96;69.60
62789;BME280;66401;42.016;21.454;2024-03-02T08:44:20;97863.94;;;15.77;66.59
62789;BME280;66401;42.016;21.454;2024-03-02T08:46:45;97854.47;;;16.04;66.62
62789;BME280;66401;42.016;21.454;2024-03-02T08:49:12;97859.53;;;15.94;67.36
62789;BME280;66401;42.016;21.454;2024-03-02T08:51:38;97861.63;;;15.40;68.95
62789;BME280;66401;42.016;21.454;2024-03-02T08:54:03;97856.69;;;15.55;70.44
62789;BME280;66401;42.016;21.454;2024-03-02T08:56:30;97859.47;;;15.37;70.95
62789;BME280;66401;42.016;21.454;2024-03-02T08:58:57;97854.22;;;15.37;73.76
62789;BME280;66401;42.016;21.454;2024-03-02T09:01:23;97859.28;;;15.27;73.62
62789;BME280;66401;42.016;21.454;2024-03-02T09:03:49;97858.03;;;15.69;70.84
62789;BME280;66401;42.016;21.454;2024-03-02T09:06:15;97864.97;;;15.35;72.42
62789;BME280;66401;42.016;21.454;2024-03-02T09:08:45;97855.34;;;15.41;71.24
62789;BME280;66401;42.016;21.454;2024-03-02T09:11:11;97871.91;;;16.27;66.02
62789;BME280;66401;42.016;21.454;2024-03-02T09:13:37;97861.69;;;18.07;64.58
62789;BME280;66401;42.016;21.454;2024-03-02T09:16:03;97853.69;;;17.70;62.08
62789;BME280;66401;42.016;21.454;2024-03-02T09:18:30;97862.56;;;20.27;57.11
62789;BME280;66401;42.016;21.454;2024-03-02T09:20:58;97856.38;;;22.62;49.33
62789;BME280;66401;42.016;21.454;2024-03-02T09:23:23;97856.75;;;23.75;43.26
62789;BME280;66401;42.016;21.454;2024-03-02T09:25:50;97846.44;;;25.45;40.48
62789;BME280;66401;42.016;21.454;2024-03-02T09:28:15;97860.72;;;22.13;44.70
62789;BME280;66401;42.016;21.454;2024-03-02T09:30:41;97858.50;;;22.25;46.97
62789;BME280;66401;42.016;21.454;2024-03-02T09:33:06;97843.50;;;20.00;51.55
62789;BME280;66401;42.016;21.454;2024-03-02T09:35:32;97854.72;;;18.60;56.38
62789;BME280;66401;42.016;21.454;2024-03-02T09:37:57;97845.91;;;19.29;55.95
62789;BME280;66401;42.016;21.454;2024-03-02T09:40:23;97856.13;;;19.10;54.76
62789;BME280;66401;42.016;21.454;2024-03-02T09:42:52;97857.13;;;18.99;55.60
62789;BME280;66401;42.016;21.454;2024-03-02T09:45:23;97837.38;;;18.00;57.58
62789;BME280;66401;42.016;21.454;2024-03-02T09:47:49;97859.78;;;17.54;58.24
62789;BME280;66401;42.016;21.454;2024-03-02T09:50:14;97859.00;;;17.09;61.07
62789;BME280;66401;42.016;21.454;2024-03-02T09:52:42;97852.78;;;16.99;62.90
62789;BME280;66401;42.016;21.454;2024-03-02T09:55:08;97858.19;;;17.74;59.06
62789;BME280;66401;42.016;21.454;2024-03-02T09:57:34;97849.56;;;17.79;59.16
62789;BME280;66401;42.016;21.454;2024-03-02T10:00:00;97861.75;;;18.44;57.23
62789;BME280;66401;42.016;21.454;2024-03-02T10:02:25;97859.31;;;18.06;57.93
62789;BME280;66401;42.016;21.454;2024-03-02T10:04:51;97846.88;;;19.02;55.01
62789;BME280;66401;42.016;21.454;2024-03-02T10:07:18;97858.44;;;21.47;50.82
62789;BME280;66401;42.016;21.454;2024-03-02T10:09:48;97851.00;;;24.70;41.55
62789;BME280;66401;42.016;21.454;2024-03-02T10:12:16;97847.81;;;26.50;37.30
62789;BME280;66401;42.016;21.454;2024-03-02T10:14:41;97850.38;;;26.56;36.92
62789;BME280;66401;42.016;21.454;2024-03-02T10:17:12;97832.03;;;27.42;34.86
62789;BME280;66401;42.016;21.454;2024-03-02T10:19:38;97846.13;;;28.90;31.90
62789;BME280;66401;42.016;21.454;2024-03-02T10:22:08;97834.00;;;28.28;33.67
62789;BME280;66401;42.016;21.454;2024-03-02T10:24:39;97836.31;;;28.12;31.90
62789;BME280;66401;42.016;21.454;2024-03-02T10:27:26;97828.94;;;27.75;34.00
62789;BME280;66401;42.016;21.454;2024-03-02T10:29:52;97829.25;;;30.65;29.87
62789;BME280;66401;42.016;21.454;2024-03-02T10:32:17;97822.38;;;32.17;27.30
62789;BME280;66401;42.016;21.454;2024-03-02T10:34:46;97834.84;;;30.27;28.98
62789;BME280;66401;42.016;21.454;2024-03-02T10:37:15;97816.66;;;30.44;28.63
62789;BME280;66401;42.016;21.454;2024-03-02T10:39:42;97811.84;;;31.72;28.05
62789;BME280;66401;42.016;21.454;2024-03-02T10:42:08;97811.38;;;30.93;29.43
62789;BME280;66401;42.016;21.454;2024-03-02T10:44:34;97811.03;;;32.84;26.31
62789;BME280;66401;42.016;21.454;2024-03-02T10:47:04;97812.78;;;30.66;27.23
62789;BME280;66401;42.016;21.454;2024-03-02T10:49:31;97801.31;;;32.51;25.50
62789;BME280;66401;42.016;21.454;2024-03-02T10:52:00;97800.13;;;32.64;26.58
62789;BME280;66401;42.016;21.454;2024-03-02T10:54:27;97764.31;;;30.75;26.70
62789;BME280;66401;42.016;21.454;2024-03-02T10:56:55;97783.00;;;31.73;26.21
62789;BME280;66401;42.016;21.454;2024-03-02T10:59:34;97784.66;;;33.44;25.05
62789;BME280;66401;42.016;21.454;2024-03-02T11:02:09;97782.69;;;33.99;23.81
62789;BME280;66401;42.016;21.454;2024-03-02T11:04:38;97789.56;;;31.59;25.92
62789;BME280;66401;42.016;21.454;2024-03-02T11:07:06;97778.19;;;29.66;27.60
62789;BME280;66401;42.016;21.454;2024-03-02T11:09:38;97764.84;;;27.87;29.90
62789;BME280;66401;42.016;21.454;2024-03-02T11:13:24;97771.13;;;30.15;29.02
62789;BME280;66401;42.016;21.454;2024-03-02T11:15:24;97763.31;;;31.97;26.34
62789;BME280;66401;42.016;21.454;2024-03-02T11:17:52;97755.66;;;31.71;26.10
62789;BME280;66401;42.016;21.454;2024-03-02T11:20:18;97753.53;;;32.04;26.30
62789;BME280;66401;42.016;21.454;2024-03-02T11:22:45;97747.78;;;33.16;24.38
62789;BME280;66401;42.016;21.454;2024-03-02T11:25:25;97749.72;;;28.64;28.31
62789;BME280;66401;42.016;21.454;2024-03-02T11:33:01;97747.28;;;30.71;26.30
62789;BME280;66401;42.016;21.454;2024-03-02T11:35:45;97739.22;;;28.88;28.74
62789;BME280;66401;42.016;21.454;2024-03-02T11:38:14;97736.47;;;29.26;29.35
62789;BME280;66401;42.016;21.454;2024-03-02T11:40:40;97732.50;;;28.73;29.57
62789;BME280;66401;42.016;21.454;2024-03-02T11:43:06;97708.06;;;27.73;29.89
62789;BME280;66401;42.016;21.454;2024-03-02T11:45:36;97731.38;;;26.89;31.42
62789;BME280;66401;42.016;21.454;2024-03-02T11:48:05;97713.34;;;26.46;32.15
62789;BME280;66401;42.016;21.454;2024-03-02T11:50:36;97727.16;;;26.48;32.22
62789;BME280;66401;42.016;21.454;2024-03-02T11:53:06;97711.25;;;25.45;33.90
62789;BME280;66401;42.016;21.454;2024-03-02T11:55:35;97725.94;;;25.20;34.34
62789;BME280;66401;42.016;21.454;2024-03-02T11:58:06;97709.00;;;24.61;34.59
62789;BME280;66401;42.016;21.454;2024-03-02T12:00:32;97721.69;;;24.37;35.31
62789;BME280;66401;42.016;21.454;2024-03-02T12:05:30;97711.16;;;23.99;36.03
62789;BME280;66401;42.016;21.454;2024-03-02T12:07:57;97698.38;;;23.68;37.07
62789;BME280;66401;42.016;21.454;2024-03-02T12:10:23;97711.81;;;23.91;36.78
62789;BME280;66401;42.016;21.454;2024-03-02T12:15:31;97704.28;;;23.65;37.72
62789;BME280;66401;42.016;21.454;2024-03-02T12:17:58;97713.53;;;24.74;34.63
62789;BME280;66401;42.016;21.454;2024-03-02T12:20:25;97701.97;;;23.91;36.44
62789;BME280;66401;42.016;21.454;2024-03-02T12:22:52;97695.97;;;23.99;37.04
62789;BME280;66401;42.016;21.454;2024-03-02T12:25:22;97698.66;;;23.48;37.18
62789;BME280;66401;42.016;21.454;2024-03-02T12:27:50;97695.78;;;22.83;37.61
62789;BME280;66401;42.016;21.454;2024-03-02T12:30:18;97681.00;;;23.20;36.65
62789;BME280;66401;42.016;21.454;2024-03-02T12:32:45;97694.25;;;23.76;37.02
62789;BME280;66401;42.016;21.454;2024-03-02T12:35:14;97679.59;;;24.39;35.10
62789;BME280;66401;42.016;21.454;2024-03-02T12:37:47;97683.06;;;23.04;37.41
62789;BME280;66401;42.016;21.454;2024-03-02T12:40:14;97688.03;;;23.48;36.00
62789;BME280;66401;42.016;21.454;2024-03-02T12:42:40;97681.56;;;22.74;37.76
62789;BME280;66401;42.016;21.454;2024-03-02T12:45:08;97684.44;;;22.77;37.51
62789;BME280;66401;42.016;21.454;2024-03-02T12:47:34;97671.03;;;22.21;38.92
62789;BME280;66401;42.016;21.454;2024-03-02T12:50:00;97669.34;;;21.72;39.66
62789;BME280;66401;42.016;21.454;2024-03-02T12:52:26;97681.47;;;21.78;39.58
62789;BME280;66401;42.016;21.454;2024-03-02T12:54:51;97673.94;;;21.12;40.36
62789;BME280;66401;42.016;21.454;2024-03-02T12:57:21;97679.28;;;20.32;42.05
62789;BME280;66401;42.016;21.454;2024-03-02T12:59:47;97679.59;;;20.15;43.60